Tonawanda, NY

10:52 PM EST on December 02, 2016 (GMT -0500)
Paramount (Delaware/Brighton) | | Change Station

Elev 607 ft 42.99 °N, 78.87 °W | Updated 12 seconds ago

Mostly Cloudy
Mostly Cloudy
37.0 °F
Feels Like 37 °F
N
1.0
Wind Variable Wind from West

Today
High -- | Low -- °F
--% Chance of Precip.
Yesterday
High -- | Low -- °F
Precip. -- in
Pressure 30.03 in
Visibility 10.0 miles
Clouds Few 1100 ft
Scattered Clouds 1600 ft
Mostly Cloudy 4100 ft
Windchill 37 °F
Dew Point 34 °F
Humidity 91%
Rainfall 0.00 in
Snow Depth Not available.
7:28 AM 4:41 PM
Waxing Crescent, 12% visible
METAR KBUF 030254Z 27011KT 10SM FEW011 SCT016 BKN041 02/00 A3000 RMK AO2 RAE07 SLP167 P0000 60001 T00220000 53015
Pressure 30.03 in
Visibility 10.0 miles
Clouds Few 1100 ft
Scattered Clouds 1600 ft
Mostly Cloudy 4100 ft
Windchill 37 °F
Dew Point 34 °F
Humidity 91%
Rainfall 0.00 in
Snow Depth Not available.
7:28 AM 4:41 PM
Waxing Crescent, 12% visible
METAR KBUF 030254Z 27011KT 10SM FEW011 SCT016 BKN041 02/00 A3000 RMK AO2 RAE07 SLP167 P0000 60001 T00220000 53015

10-Day Weather Forecast

Almanac

Astronomy

Dec. 02, 2016 Rise Set
Actual Time
Civil Twilight
Nautical Twilight
Astronomical Twilight
Moon
Length of Visible Light
Length of Day
Tomorrow will be .
, % of the Moon is Illuminated

Today's Extremes

State Highs State Lows

Community

WunderPhotos

Upload Photos

1,955,405 photos uploaded!

WunderBlog® & News

Nearby

Air Quality

  Air Quality AQ Index Pollutant
Not available.

Snow Depth

Station Depth Elevation

Earthquake Activity

City Distance Mag. Time & Date
Minimum magnitude displayed is 2.5.

Coastal Water Temperatures

Place Temperature

Stations

Nearby Weather Stations

Station Location Temp. Windchill Dew Point Humidity Wind Precip. Elev Updated Type
                   

Watches & Warnings

There are currently no watches in effect.